Time;durP1;ratioP1;P1;durP2;ratioP2;P2;SDS_P1;SDS_P2;PMS_P1;PMS_P2;Temp;Humidity;BMP_temperature;BMP_pressure;BME280_temperature;BME280_humidity;BME280_pressure;Samples;Min_cycle;Max_cycle;Signal;HPM_P1;HPM_P2
2023/01/31 05:02:32;;;;;;;8.32;0.93;;;3.90;99.90;;;;;;4992734;23;20321;-68
2023/01/31 05:04:58;;;;;;;0.40;0.40;;;4.00;99.90;;;;;;4951948;28;22065;-66
2023/01/31 05:07:25;;;;;;;0.10;0.10;;;4.00;99.90;;;;;;4952953;28;20817;-66
2023/01/31 05:09:52;;;;;;;0.45;0.45;;;4.00;99.90;;;;;;4954966;28;20649;-67
2023/01/31 05:12:19;;;;;;;2.50;0.45;;;4.00;99.90;;;;;;4955356;28;20566;-65
2023/01/31 05:14:46;;;;;;;0.10;0.10;;;4.00;99.90;;;;;;4955034;28;20220;-67
2023/01/31 05:17:13;;;;;;;0.20;0.20;;;4.00;99.90;;;;;;4958138;23;20668;-69
2023/01/31 05:19:42;;;;;;;1.95;0.63;;;4.00;99.90;;;;;;4917099;29;20281;-69
2023/01/31 05:22:09;;;;;;;0.38;0.38;;;4.10;99.90;;;;;;4904668;29;20275;-69
2023/01/31 05:24:36;;;;;;;0.73;0.57;;;4.10;99.90;;;;;;4915485;29;20235;-69
2023/01/31 05:27:03;;;;;;;0.77;0.77;;;4.10;99.90;;;;;;4917354;29;20233;-68
2023/01/31 05:29:32;;;;;;;3.00;2.22;;;4.20;99.90;;;;;;4929437;29;20630;-69
2023/01/31 05:32:01;;;;;;;1.77;1.77;;;4.20;99.90;;;;;;4913551;29;20237;-69
2023/01/31 05:34:31;;;;;;;1.25;1.15;;;4.20;99.90;;;;;;4914796;29;20207;-69
2023/01/31 05:37:00;;;;;;;1.05;1.05;;;4.20;99.90;;;;;;4924210;29;20619;-69
2023/01/31 05:39:27;;;;;;;0.68;0.50;;;4.30;99.90;;;;;;4924744;29;20655;-69
2023/01/31 05:41:53;;;;;;;0.40;0.40;;;4.30;99.90;;;;;;4929633;29;20213;-69
2023/01/31 05:44:20;;;;;;;2.15;1.15;;;4.30;99.90;;;;;;4913620;29;20400;-69
2023/01/31 05:46:47;;;;;;;0.30;0.30;;;4.30;99.90;;;;;;4918249;29;20215;-68
2023/01/31 05:49:14;;;;;;;1.60;1.52;;;4.40;99.90;;;;;;4921403;29;20199;-68
2023/01/31 05:51:41;;;;;;;1.50;0.50;;;4.40;99.90;;;;;;4925779;29;20221;-68
2023/01/31 05:54:11;;;;;;;0.90;0.90;;;4.40;99.90;;;;;;4916277;29;20208;-68
2023/01/31 05:56:38;;;;;;;1.45;0.98;;;4.40;99.90;;;;;;4923506;29;20210;-68
2023/01/31 05:59:05;;;;;;;0.50;0.50;;;4.40;99.90;;;;;;4918336;29;20238;-68
2023/01/31 06:01:32;;;;;;;1.77;1.45;;;4.50;99.90;;;;;;4921732;29;20202;-68
2023/01/31 06:03:58;;;;;;;1.17;1.17;;;4.50;99.90;;;;;;4925303;29;20231;-68
2023/01/31 06:06:25;;;;;;;0.70;0.70;;;4.50;99.90;;;;;;4929572;29;20206;-68
2023/01/31 06:08:52;;;;;;;0.50;0.50;;;4.50;99.90;;;;;;4917953;29;20237;-68
2023/01/31 06:11:20;;;;;;;0.80;0.80;;;4.50;99.90;;;;;;4921197;29;20548;-69
2023/01/31 06:13:48;;;;;;;0.20;0.20;;;4.50;99.90;;;;;;4927519;29;20579;-69
2023/01/31 06:16:14;;;;;;;1.75;1.65;;;4.60;99.90;;;;;;4928809;29;20576;-69
2023/01/31 06:18:41;;;;;;;0.43;0.43;;;4.60;99.90;;;;;;4916356;29;20260;-69
2023/01/31 06:21:08;;;;;;;0.20;0.20;;;4.60;99.90;;;;;;4915171;29;20673;-68
2023/01/31 06:23:35;;;;;;;0.77;0.77;;;4.60;99.90;;;;;;4930998;29;20222;-68
2023/01/31 06:26:02;;;;;;;0.82;0.82;;;4.60;99.90;;;;;;4919026;29;20218;-68
2023/01/31 06:28:30;;;;;;;4.93;0.90;;;4.60;99.90;;;;;;4919725;29;20607;-68
2023/01/31 06:30:56;;;;;;;1.17;1.17;;;4.60;99.90;;;;;;4924614;29;20654;-68
2023/01/31 06:33:23;;;;;;;29.65;1.42;;;4.60;99.90;;;;;;4922288;29;20666;-68
2023/01/31 06:35:50;;;;;;;0.28;0.28;;;4.50;99.90;;;;;;4924380;29;20214;-68
2023/01/31 06:38:17;;;;;;;3.95;0.63;;;4.60;99.90;;;;;;4912673;29;20234;-68
2023/01/31 06:40:43;;;;;;;0.20;0.20;;;4.60;99.90;;;;;;4919983;29;20597;-68
2023/01/31 06:43:10;;;;;;;4.45;0.68;;;4.60;99.90;;;;;;4915234;29;20290;-69
2023/01/31 06:45:38;;;;;;;0.20;0.20;;;4.50;99.90;;;;;;4914360;29;20228;-69
2023/01/31 06:48:05;;;;;;;0.77;0.57;;;4.50;99.90;;;;;;4919032;29;20238;-69
2023/01/31 06:50:32;;;;;;;4.13;1.38;;;4.60;99.90;;;;;;4918455;29;20214;-69
2023/01/31 06:52:59;;;;;;;10.23;3.60;;;4.60;99.90;;;;;;4914586;29;20222;-69
2023/01/31 06:55:25;;;;;;;9.23;1.45;;;4.60;99.90;;;;;;4913022;29;20263;-69
2023/01/31 06:57:54;;;;;;;1.25;1.13;;;4.60;99.90;;;;;;4925163;29;20313;-69
2023/01/31 07:00:23;;;;;;;0.30;0.30;;;4.60;99.90;;;;;;4916210;29;20302;-69
2023/01/31 07:02:52;;;;;;;0.98;0.98;;;4.60;99.90;;;;;;4912534;29;20551;-69
2023/01/31 07:05:19;;;;;;;5.93;0.50;;;4.60;99.90;;;;;;4925788;29;20237;-69
2023/01/31 07:07:47;;;;;;;3.60;1.00;;;4.60;99.90;;;;;;4914688;29;20227;-69
2023/01/31 07:10:14;;;;;;;3.00;0.98;;;4.70;99.90;;;;;;4910241;29;20547;-69
2023/01/31 07:12:40;;;;;;;0.68;0.68;;;4.60;99.90;;;;;;4919945;29;20867;-68
2023/01/31 07:15:09;;;;;;;1.10;0.95;;;4.60;99.90;;;;;;4914596;29;20203;-69
2023/01/31 07:17:35;;;;;;;2.70;0.65;;;4.60;99.90;;;;;;4914552;29;20239;-69
2023/01/31 07:20:04;;;;;;;0.77;0.77;;;4.60;99.90;;;;;;4915034;29;20207;-69
2023/01/31 07:22:31;;;;;;;1.15;1.15;;;4.60;99.90;;;;;;4914364;29;20217;-69
2023/01/31 07:24:57;;;;;;;3.15;1.40;;;4.60;99.90;;;;;;4923584;29;20245;-69
2023/01/31 07:27:24;;;;;;;11.05;0.95;;;4.60;99.90;;;;;;4926239;29;20243;-68
2023/01/31 07:29:51;;;;;;;14.30;1.38;;;4.60;99.90;;;;;;4921436;29;20241;-68
2023/01/31 07:32:18;;;;;;;1.27;0.50;;;4.60;99.90;;;;;;4920364;29;20211;-69
2023/01/31 07:34:45;;;;;;;1.98;1.98;;;4.60;99.90;;;;;;4914538;29;20543;-69
2023/01/31 07:37:13;;;;;;;0.55;0.30;;;4.60;99.90;;;;;;4911775;29;20577;-68
2023/01/31 07:39:39;;;;;;;2.72;0.47;;;4.60;99.90;;;;;;4917526;29;20207;-69
2023/01/31 07:42:06;;;;;;;11.10;1.13;;;4.70;99.90;;;;;;4913948;29;20207;-70
2023/01/31 07:44:33;;;;;;;1.40;1.40;;;4.80;99.90;;;;;;4914690;29;20238;-69
2023/01/31 07:47:00;;;;;;;1.92;1.77;;;4.80;99.90;;;;;;4924073;29;20209;-69
2023/01/31 07:49:26;;;;;;;2.15;1.17;;;4.80;99.90;;;;;;4913331;29;20234;-68
2023/01/31 07:51:53;;;;;;;0.95;0.90;;;4.80;99.90;;;;;;4912057;29;20304;-67
2023/01/31 07:54:22;;;;;;;0.40;0.40;;;4.80;99.90;;;;;;4927298;29;20295;-67
2023/01/31 07:56:48;;;;;;;7.28;4.53;;;4.80;99.90;;;;;;4924822;29;20207;-68
2023/01/31 07:59:16;;;;;;;4.15;1.90;;;4.80;99.90;;;;;;4915229;29;20271;-68
2023/01/31 08:04:27;;;;;;;1.75;1.20;;;4.90;99.90;;;;;;4908569;29;20574;-68
2023/01/31 08:06:55;;;;;;;12.40;1.90;;;4.90;99.90;;;;;;4910223;29;20223;-68
2023/01/31 08:09:24;;;;;;;1.38;1.33;;;4.90;99.90;;;;;;4926183;29;20246;-68
2023/01/31 08:11:51;;;;;;;3.15;1.20;;;4.90;99.90;;;;;;4916415;29;20211;-68
2023/01/31 08:14:22;;;;;;;4.75;2.03;;;4.90;99.90;;;;;;4914928;29;20563;-68
2023/01/31 08:16:49;;;;;;;2.00;1.90;;;4.90;99.90;;;;;;4916794;29;20223;-68
2023/01/31 08:19:15;;;;;;;1.33;0.88;;;5.00;99.90;;;;;;4917176;29;20242;-68
2023/01/31 08:21:42;;;;;;;10.98;1.50;;;5.00;99.90;;;;;;4913816;29;20229;-68
2023/01/31 08:24:09;;;;;;;1.05;0.98;;;5.00;99.90;;;;;;4917290;29;20645;-68
2023/01/31 08:26:37;;;;;;;1.75;0.68;;;5.00;99.90;;;;;;4934108;29;20238;-68
2023/01/31 08:29:04;;;;;;;1.30;0.98;;;5.10;99.90;;;;;;4924421;29;20222;-68
2023/01/31 08:31:31;;;;;;;1.67;1.58;;;5.10;99.90;;;;;;4925713;29;20218;-68
2023/01/31 08:33:58;;;;;;;3.90;2.13;;;5.20;99.90;;;;;;4919958;29;20222;-68
2023/01/31 08:36:27;;;;;;;5.13;1.33;;;5.20;99.90;;;;;;4922731;29;20235;-68
2023/01/31 08:38:56;;;;;;;4.40;2.70;;;5.20;99.90;;;;;;4923648;29;20227;-68
2023/01/31 08:41:25;;;;;;;10.25;1.95;;;5.30;99.90;;;;;;4921679;29;20208;-68
2023/01/31 08:43:54;;;;;;;1.85;1.50;;;5.30;99.90;;;;;;4917055;29;20214;-68
2023/01/31 08:46:22;;;;;;;1.38;1.25;;;5.30;99.90;;;;;;4910200;29;20227;-68
2023/01/31 08:48:48;;;;;;;1.55;1.45;;;5.30;99.90;;;;;;4925898;29;20326;-68
2023/01/31 08:51:15;;;;;;;4.95;2.08;;;5.30;99.90;;;;;;4923014;29;20222;-68
2023/01/31 08:53:44;;;;;;;4.38;2.25;;;5.40;99.90;;;;;;4915447;29;20214;-68
2023/01/31 08:56:12;;;;;;;5.28;2.08;;;5.40;99.90;;;;;;4915692;29;20209;-68
2023/01/31 08:58:41;;;;;;;6.25;1.27;;;5.40;99.90;;;;;;4913382;29;20232;-68
2023/01/31 09:01:11;;;;;;;6.18;2.15;;;5.50;99.90;;;;;;4919360;29;20211;-67
2023/01/31 09:03:39;;;;;;;6.38;1.67;;;5.40;99.90;;;;;;4917258;29;20218;-67
2023/01/31 09:06:08;;;;;;;2.55;2.03;;;5.50;99.90;;;;;;4912057;29;20316;-67
2023/01/31 09:08:35;;;;;;;5.07;3.47;;;5.50;99.90;;;;;;4917326;29;20707;-67
2023/01/31 09:11:02;;;;;;;6.70;2.00;;;5.50;99.90;;;;;;4919160;29;20793;-68
2023/01/31 09:13:30;;;;;;;0.85;0.85;;;5.50;99.90;;;;;;4924688;29;20214;-68
2023/01/31 09:16:00;;;;;;;10.02;2.60;;;5.60;99.90;;;;;;4922061;29;20215;-67
2023/01/31 09:18:28;;;;;;;1.98;1.88;;;5.60;99.90;;;;;;4916945;29;20267;-68
2023/01/31 09:20:55;;;;;;;1.45;0.95;;;5.60;99.90;;;;;;4916107;29;20669;-68
2023/01/31 09:23:22;;;;;;;34.88;6.22;;;5.70;99.90;;;;;;4927135;29;20212;-68
2023/01/31 09:25:53;;;;;;;3.55;2.10;;;5.70;99.90;;;;;;4918549;29;20227;-68
2023/01/31 09:28:21;;;;;;;7.43;2.83;;;5.70;99.90;;;;;;4921484;29;20232;-68
2023/01/31 09:30:48;;;;;;;2.42;2.42;;;5.80;99.90;;;;;;4927753;29;20218;-68
2023/01/31 09:33:15;;;;;;;4.60;2.38;;;5.80;99.90;;;;;;4916451;29;20545;-68
2023/01/31 09:35:43;;;;;;;4.20;2.45;;;5.80;99.90;;;;;;4916802;29;20243;-67
2023/01/31 09:38:09;;;;;;;1.15;1.15;;;5.80;99.90;;;;;;4916983;29;21391;-67
2023/01/31 09:40:40;;;;;;;15.10;2.42;;;5.80;99.90;;;;;;4910852;29;20219;-68
2023/01/31 09:43:10;;;;;;;1.45;1.25;;;5.80;99.90;;;;;;4913713;29;20653;-67
2023/01/31 09:45:41;;;;;;;2.88;1.73;;;5.80;99.90;;;;;;4913885;29;20294;-68
2023/01/31 09:48:15;;;;;;;2.30;2.30;;;5.70;99.90;;;;;;4923006;29;20233;-68
2023/01/31 09:50:49;;;;;;;2.00;2.00;;;5.70;99.90;;;;;;4916913;29;20211;-68
2023/01/31 09:53:20;;;;;;;1.90;1.80;;;5.70;99.90;;;;;;4924618;29;20208;-68
2023/01/31 09:55:55;;;;;;;3.75;1.23;;;5.70;99.90;;;;;;4910528;29;20259;-68
2023/01/31 09:58:29;;;;;;;2.58;2.47;;;5.70;99.90;;;;;;4911326;29;20659;-67
2023/01/31 10:01:06;;;;;;;9.63;1.80;;;5.70;99.90;;;;;;4922345;29;20230;-68
2023/01/31 10:03:45;;;;;;;2.00;2.00;;;5.70;99.90;;;;;;4928192;29;20217;-68
2023/01/31 10:06:20;;;;;;;11.60;1.20;;;5.70;99.90;;;;;;4919234;29;20607;-68
2023/01/31 10:08:52;;;;;;;1.48;1.48;;;5.70;99.90;;;;;;4915459;29;20239;-67
2023/01/31 10:11:30;;;;;;;1.80;1.70;;;5.80;99.90;;;;;;4915765;29;20212;-67
2023/01/31 10:14:04;;;;;;;0.90;0.90;;;5.80;99.90;;;;;;4920849;29;20217;-67
2023/01/31 10:16:35;;;;;;;4.10;1.88;;;5.80;99.90;;;;;;4921962;29;20212;-68
2023/01/31 10:19:05;;;;;;;1.73;1.63;;;5.80;99.90;;;;;;4916104;29;20235;-68
2023/01/31 10:21:38;;;;;;;4.85;2.78;;;5.80;99.90;;;;;;4916167;29;20219;-68
2023/01/31 10:24:13;;;;;;;2.53;1.70;;;5.80;99.90;;;;;;4913349;29;20212;-68
2023/01/31 10:26:44;;;;;;;2.58;2.22;;;5.80;99.90;;;;;;4917748;29;20234;-68
2023/01/31 10:29:17;;;;;;;2.08;2.00;;;5.80;99.90;;;;;;4915454;29;20289;-68
2023/01/31 10:31:49;;;;;;;2.05;1.95;;;5.80;99.90;;;;;;4912486;29;20227;-68
2023/01/31 10:34:21;;;;;;;1.65;1.65;;;5.70;99.90;;;;;;4920979;29;20711;-69
2023/01/31 10:36:53;;;;;;;1.95;1.85;;;5.70;99.90;;;;;;4917009;29;20243;-68
2023/01/31 10:39:24;;;;;;;2.05;1.90;;;5.70;99.90;;;;;;4921341;29;20208;-68
2023/01/31 10:42:06;;;;;;;1.25;1.25;;;5.70;99.90;;;;;;4916568;29;20212;-68
2023/01/31 10:44:42;;;;;;;17.20;3.45;;;5.70;99.90;;;;;;4922605;29;20588;-68
2023/01/31 10:47:13;;;;;;;1.85;1.38;;;5.70;99.90;;;;;;4917555;29;20236;-68
2023/01/31 10:49:44;;;;;;;1.92;1.83;;;5.70;99.90;;;;;;4912093;29;20279;-68
2023/01/31 10:52:27;;;;;;;3.22;2.92;;;5.70;99.90;;;;;;4916015;29;20207;-68
2023/01/31 10:55:03;;;;;;;2.30;1.40;;;5.70;99.90;;;;;;4915974;29;20621;-68
2023/01/31 10:57:31;;;;;;;7.75;3.53;;;5.70;99.90;;;;;;4918262;29;20238;-69
2023/01/31 10:59:58;;;;;;;2.35;2.15;;;5.70;99.90;;;;;;4918468;29;20225;-69
2023/01/31 11:02:27;;;;;;;3.80;3.50;;;5.70;99.90;;;;;;4910703;29;20698;-69
2023/01/31 11:04:57;;;;;;;4.40;3.95;;;5.70;99.90;;;;;;4911317;29;20227;-67
2023/01/31 11:07:28;;;;;;;1.55;1.20;;;5.70;99.90;;;;;;4912116;29;20558;-67
2023/01/31 11:09:55;;;;;;;3.97;3.08;;;5.70;99.90;;;;;;4914463;29;20214;-67
2023/01/31 11:12:39;;;;;;;5.38;3.00;;;5.70;99.90;;;;;;4909392;29;20214;-67
2023/01/31 11:15:14;;;;;;;1.30;0.88;;;5.80;99.90;;;;;;4916800;29;20251;-67
2023/01/31 11:17:43;;;;;;;4.22;3.85;;;5.80;99.90;;;;;;4912904;29;20274;-67
2023/01/31 11:20:21;;;;;;;5.43;4.25;;;5.80;99.90;;;;;;4935904;23;20238;-69
2023/01/31 11:22:50;;;;;;;2.80;1.92;;;5.80;99.90;;;;;;4949896;29;20206;-68
2023/01/31 11:25:20;;;;;;;2.97;2.85;;;5.80;99.90;;;;;;4949563;28;20671;-68
2023/01/31 11:27:48;;;;;;;6.47;4.18;;;5.80;99.90;;;;;;4950264;29;20533;-68
2023/01/31 11:30:25;;;;;;;3.47;3.17;;;5.80;99.90;;;;;;4944071;29;20230;-69
2023/01/31 11:32:52;;;;;;;1.80;1.65;;;5.80;99.90;;;;;;4931836;29;20573;-68
2023/01/31 11:35:26;;;;;;;12.70;1.42;;;5.80;99.90;;;;;;4930681;29;20214;-69
2023/01/31 11:37:56;;;;;;;2.15;2.03;;;5.80;99.90;;;;;;4933379;29;20206;-69
2023/01/31 11:40:30;;;;;;;2.97;2.70;;;5.90;99.90;;;;;;4931214;29;20641;-69
2023/01/31 11:42:58;;;;;;;4.22;1.98;;;5.90;99.90;;;;;;4929074;29;20215;-69
2023/01/31 11:45:27;;;;;;;4.70;4.40;;;5.90;99.90;;;;;;4929748;29;20213;-67
2023/01/31 11:47:56;;;;;;;4.63;1.60;;;5.90;99.90;;;;;;4932803;29;20299;-67
2023/01/31 11:50:26;;;;;;;3.00;2.67;;;5.90;99.90;;;;;;4929794;29;20723;-67
2023/01/31 11:53:00;;;;;;;3.90;3.80;;;5.90;99.90;;;;;;4929864;29;20218;-68
2023/01/31 11:55:28;;;;;;;3.58;3.30;;;5.90;99.90;;;;;;4927835;29;20673;-67
2023/01/31 11:57:57;;;;;;;3.70;3.45;;;5.90;99.90;;;;;;4932251;29;20223;-68
2023/01/31 12:00:27;;;;;;;1.98;1.90;;;5.90;99.90;;;;;;4929147;29;20546;-68
2023/01/31 12:03:00;;;;;;;2.63;2.42;;;5.90;99.90;;;;;;4928137;29;20214;-68
2023/01/31 12:05:36;;;;;;;2.38;2.28;;;5.90;99.90;;;;;;4927992;29;21851;-69
2023/01/31 12:08:05;;;;;;;2.22;2.15;;;6.00;99.90;;;;;;4931076;29;20553;-69
2023/01/31 12:10:35;;;;;;;2.83;2.63;;;6.00;99.90;;;;;;4933522;29;20235;-69
2023/01/31 12:13:11;;;;;;;2.45;2.25;;;6.00;99.90;;;;;;4929620;29;20207;-68
2023/01/31 12:15:46;;;;;;;20.50;3.38;;;6.00;99.90;;;;;;4931730;29;20206;-69
2023/01/31 12:18:14;;;;;;;2.47;2.28;;;6.10;99.90;;;;;;4927813;29;20207;-67
2023/01/31 12:20:49;;;;;;;2.33;2.22;;;6.10;99.90;;;;;;4929956;29;20231;-68
2023/01/31 12:23:27;;;;;;;2.35;2.25;;;6.10;99.90;;;;;;4926551;29;20223;-69
2023/01/31 12:26:04;;;;;;;2.42;2.35;;;6.10;99.90;;;;;;4932495;29;20231;-67
2023/01/31 12:28:46;;;;;;;2.78;2.65;;;6.10;99.90;;;;;;4925472;29;20200;-69
2023/01/31 12:31:30;;;;;;;2.45;2.30;;;6.10;99.90;;;;;;4927419;29;20885;-69
2023/01/31 12:34:15;;;;;;;2.50;2.40;;;6.20;99.90;;;;;;4925193;29;20231;-67
2023/01/31 12:36:55;;;;;;;3.33;1.70;;;6.20;99.90;;;;;;4931265;29;20204;-67
2023/01/31 12:39:45;;;;;;;1.73;1.55;;;6.20;99.90;;;;;;4929408;29;20224;-69
2023/01/31 12:42:25;;;;;;;3.22;1.73;;;6.20;99.90;;;;;;4925468;29;20218;-68
2023/01/31 12:45:05;;;;;;;6.10;1.67;;;6.30;99.90;;;;;;4929325;29;20214;-69
2023/01/31 12:48:00;;;;;;;1.65;1.27;;;6.30;99.90;;;;;;4931339;29;20602;-69
2023/01/31 12:50:33;;;;;;;5.07;1.95;;;6.40;99.90;;;;;;4922990;29;20235;-69
2023/01/31 12:53:24;;;;;;;2.78;2.63;;;6.40;99.90;;;;;;4922664;29;20218;-68
2023/01/31 12:56:03;;;;;;;3.15;2.85;;;6.40;99.90;;;;;;4929884;29;20654;-69
2023/01/31 12:58:42;;;;;;;1.75;1.65;;;6.40;99.90;;;;;;4932898;29;20297;-69
2023/01/31 13:01:12;;;;;;;5.30;3.17;;;6.50;99.90;;;;;;4928572;29;20236;-68
2023/01/31 13:03:58;;;;;;;1.05;1.05;;;6.50;99.90;;;;;;4928413;29;20295;-68
2023/01/31 13:06:31;;;;;;;2.72;2.30;;;6.50;99.90;;;;;;4934190;29;20223;-69
2023/01/31 13:09:03;;;;;;;21.05;2.28;;;6.50;99.90;;;;;;4935851;29;20212;-68
2023/01/31 13:11:37;;;;;;;1.23;1.10;;;6.50;99.90;;;;;;4927960;29;20227;-68
2023/01/31 13:14:10;;;;;;;0.85;0.85;;;6.60;99.90;;;;;;4934543;29;20292;-69
2023/01/31 13:16:41;;;;;;;3.00;1.13;;;6.60;99.90;;;;;;4932622;29;20226;-69
2023/01/31 13:19:18;;;;;;;0.63;0.63;;;6.60;99.90;;;;;;4930974;29;20215;-69
2023/01/31 13:21:49;;;;;;;1.80;1.65;;;6.60;99.90;;;;;;4935284;29;20227;-69
2023/01/31 13:24:19;;;;;;;1.15;1.15;;;6.70;99.90;;;;;;4932486;29;20203;-68
2023/01/31 13:26:50;;;;;;;1.25;0.98;;;6.70;99.90;;;;;;4936170;29;20705;-69
2023/01/31 13:29:21;;;;;;;0.88;0.88;;;6.70;99.90;;;;;;4930655;29;20207;-68
2023/01/31 13:31:55;;;;;;;0.82;0.82;;;6.70;99.90;;;;;;4918921;29;20876;-68
2023/01/31 13:34:28;;;;;;;0.90;0.90;;;6.70;99.90;;;;;;4932549;29;20690;-68
2023/01/31 13:37:00;;;;;;;1.35;1.25;;;6.80;99.90;;;;;;4934038;29;20224;-68
2023/01/31 13:39:31;;;;;;;1.70;1.58;;;6.80;99.90;;;;;;4928823;29;20218;-67
2023/01/31 13:41:59;;;;;;;1.52;1.42;;;6.80;99.90;;;;;;4935238;29;20222;-68
2023/01/31 13:44:26;;;;;;;1.95;0.88;;;6.90;99.90;;;;;;4931333;29;20207;-69
2023/01/31 13:46:58;;;;;;;1.00;1.00;;;6.90;99.90;;;;;;4933740;29;20236;-70
2023/01/31 13:49:28;;;;;;;1.10;1.10;;;6.90;99.90;;;;;;4935491;29;20314;-70
2023/01/31 13:51:58;;;;;;;1.50;0.88;;;6.90;99.90;;;;;;4933947;29;20232;-68
2023/01/31 13:54:28;;;;;;;1.25;1.15;;;6.90;99.90;;;;;;4933637;29;20613;-68
2023/01/31 13:56:58;;;;;;;0.80;0.80;;;6.90;99.90;;;;;;4932867;29;20295;-68
2023/01/31 13:59:29;;;;;;;1.85;1.67;;;6.90;99.90;;;;;;4935828;29;20195;-68
2023/01/31 14:01:59;;;;;;;1.90;1.80;;;6.90;99.90;;;;;;4931957;29;20234;-69
2023/01/31 14:04:29;;;;;;;2.67;1.50;;;6.90;99.90;;;;;;4930264;29;20732;-69
2023/01/31 14:07:13;;;;;;;0.65;0.65;;;7.00;99.90;;;;;;4935508;29;20241;-69
2023/01/31 14:09:43;;;;;;;1.05;0.95;;;7.00;99.90;;;;;;4932786;29;20295;-67
2023/01/31 14:12:32;;;;;;;5.68;2.13;;;7.00;99.90;;;;;;4926577;29;20684;-69
2023/01/31 14:15:00;;;;;;;0.65;0.65;;;7.00;99.90;;;;;;4928762;29;20220;-69
2023/01/31 14:17:58;;;;;;;0.40;0.40;;;7.10;99.90;;;;;;4933756;29;20852;-70
2023/01/31 14:20:27;;;;;;;1.85;1.75;;;7.10;99.90;;;;;;4923405;29;20300;-68
2023/01/31 14:23:29;;;;;;;4.32;1.67;;;7.10;99.90;;;;;;4929848;29;20732;-67
2023/01/31 14:25:56;;;;;;;1.63;1.52;;;7.10;99.90;;;;;;4930138;29;20256;-69
2023/01/31 14:28:23;;;;;;;0.63;0.50;;;7.10;99.90;;;;;;4930605;29;20213;-70
2023/01/31 14:30:52;;;;;;;1.25;1.25;;;7.10;99.90;;;;;;4928896;29;20239;-68
2023/01/31 14:33:36;;;;;;;0.98;0.75;;;7.10;99.90;;;;;;4933610;29;20203;-69
2023/01/31 14:36:44;;;;;;;1.33;1.27;;;7.10;99.90;;;;;;4933533;29;20222;-69
2023/01/31 14:39:50;;;;;;;0.85;0.85;;;7.10;99.90;;;;;;4921969;29;20687;-68
2023/01/31 14:43:00;;;;;;;1.70;1.27;;;7.20;99.90;;;;;;4928554;29;20210;-67
2023/01/31 14:45:57;;;;;;;0.55;0.55;;;7.10;99.90;;;;;;4893493;29;20216;-68
2023/01/31 14:48:37;;;;;;;0.75;0.75;;;7.10;99.90;;;;;;4879840;29;20235;-69
2023/01/31 14:51:10;;;;;;;1.20;0.73;;;7.10;99.90;;;;;;4923168;29;20329;-68
2023/01/31 14:53:56;;;;;;;1.15;1.15;;;7.10;99.90;;;;;;4934496;29;20212;-69
2023/01/31 14:56:38;;;;;;;2.47;1.67;;;7.10;99.90;;;;;;4933153;29;20215;-69
2023/01/31 14:59:04;;;;;;;0.65;0.65;;;7.10;99.90;;;;;;4934103;29;20206;-66
2023/01/31 15:01:34;;;;;;;0.85;0.55;;;7.10;99.90;;;;;;4934101;29;20234;-68
2023/01/31 15:04:03;;;;;;;1.85;1.25;;;7.10;99.90;;;;;;4930865;29;20208;-68
2023/01/31 15:06:33;;;;;;;0.93;0.93;;;7.10;99.90;;;;;;4930127;29;20218;-68
2023/01/31 15:09:38;;;;;;;1.13;1.13;;;7.10;99.90;;;;;;4932855;29;20219;-69
2023/01/31 15:12:05;;;;;;;0.57;0.57;;;7.20;99.90;;;;;;4873853;29;20239;-69
2023/01/31 15:14:36;;;;;;;3.20;1.23;;;7.10;99.90;;;;;;4873959;29;20211;-69
2023/01/31 15:17:10;;;;;;;1.00;1.00;;;7.10;99.90;;;;;;4901962;29;20211;-67
2023/01/31 15:19:45;;;;;;;0.52;0.52;;;7.20;99.90;;;;;;4931369;29;20228;-67
2023/01/31 15:22:15;;;;;;;0.85;0.85;;;7.20;99.90;;;;;;4933213;29;21050;-69
2023/01/31 15:24:46;;;;;;;0.45;0.45;;;7.20;99.90;;;;;;4929290;29;20207;-68
2023/01/31 15:27:17;;;;;;;1.00;1.00;;;7.20;99.90;;;;;;4932384;29;20236;-69
2023/01/31 15:29:52;;;;;;;0.35;0.35;;;7.30;99.90;;;;;;4932588;29;20206;-67
2023/01/31 15:32:22;;;;;;;1.23;1.23;;;7.30;99.90;;;;;;4932304;29;20218;-70
2023/01/31 15:34:55;;;;;;;1.00;1.00;;;7.20;99.90;;;;;;4932153;29;20222;-68
2023/01/31 15:37:26;;;;;;;0.73;0.70;;;7.20;99.90;;;;;;4931258;29;20211;-69
2023/01/31 15:39:56;;;;;;;5.40;1.38;;;7.30;99.90;;;;;;4931102;29;20239;-69
2023/01/31 15:42:26;;;;;;;0.85;0.70;;;7.30;99.90;;;;;;4931670;29;20212;-69
2023/01/31 15:45:15;;;;;;;5.45;1.08;;;7.30;99.90;;;;;;4928629;29;20212;-69
2023/01/31 15:47:41;;;;;;;1.30;0.80;;;7.30;99.90;;;;;;4924605;29;20327;-69
2023/01/31 15:50:19;;;;;;;0.63;0.63;;;7.30;99.90;;;;;;4925943;29;20333;-70
2023/01/31 15:52:46;;;;;;;0.70;0.70;;;7.30;99.90;;;;;;4927168;29;20693;-67
2023/01/31 15:55:15;;;;;;;0.90;0.90;;;7.40;99.90;;;;;;4927140;29;20220;-69
2023/01/31 15:57:46;;;;;;;1.20;0.80;;;7.40;99.90;;;;;;4926303;29;20216;-67
2023/01/31 16:00:19;;;;;;;1.25;1.15;;;7.40;99.90;;;;;;4924245;29;20239;-69
2023/01/31 16:02:47;;;;;;;0.75;0.75;;;7.40;99.90;;;;;;4923313;29;20216;-65
2023/01/31 16:05:19;;;;;;;1.48;1.30;;;7.40;99.90;;;;;;4921605;29;20212;-68
2023/01/31 16:07:47;;;;;;;0.60;0.60;;;7.50;99.90;;;;;;4930733;29;20231;-67
2023/01/31 16:10:15;;;;;;;1.50;1.17;;;7.50;99.90;;;;;;4925375;29;20242;-69
2023/01/31 16:12:46;;;;;;;3.83;0.93;;;7.50;99.90;;;;;;4933129;29;20290;-68
2023/01/31 16:15:18;;;;;;;0.80;0.80;;;7.40;99.90;;;;;;4930408;29;20314;-69
2023/01/31 16:17:45;;;;;;;5.53;1.20;;;7.50;99.90;;;;;;4930210;29;20204;-69
2023/01/31 16:20:37;;;;;;;5.38;0.73;;;7.50;99.90;;;;;;4929322;29;20664;-69
2023/01/31 16:23:04;;;;;;;1.27;1.20;;;7.40;99.90;;;;;;4931428;29;20223;-69
2023/01/31 16:25:34;;;;;;;2.85;1.30;;;7.40;99.90;;;;;;4932126;29;20213;-68
2023/01/31 16:28:04;;;;;;;0.30;0.30;;;7.40;99.90;;;;;;4932009;29;20227;-68
2023/01/31 16:30:33;;;;;;;1.27;1.27;;;7.40;99.90;;;;;;4929457;29;20234;-67
2023/01/31 16:33:00;;;;;;;0.85;0.85;;;7.40;99.90;;;;;;4931043;29;20241;-68
2023/01/31 16:35:29;;;;;;;1.80;0.82;;;7.40;99.90;;;;;;4932431;29;20256;-67
2023/01/31 16:38:16;;;;;;;3.83;2.15;;;7.40;99.90;;;;;;4933971;29;20216;-68
2023/01/31 16:40:47;;;;;;;1.85;0.98;;;7.40;99.90;;;;;;4932995;29;20231;-69
2023/01/31 16:43:21;;;;;;;1.95;1.00;;;7.40;99.90;;;;;;4934678;29;20212;-68
2023/01/31 16:45:52;;;;;;;0.88;0.88;;;7.40;99.90;;;;;;4934573;29;20219;-68
2023/01/31 16:48:25;;;;;;;21.23;2.45;;;7.40;99.90;;;;;;4933648;29;20243;-68
2023/01/31 16:50:53;;;;;;;4.15;1.88;;;7.40;99.90;;;;;;4933411;29;20319;-69
2023/01/31 16:53:32;;;;;;;7.65;1.20;;;7.40;99.90;;;;;;4932618;29;20216;-69
2023/01/31 16:56:20;;;;;;;1.00;1.00;;;7.40;99.90;;;;;;4936516;29;20218;-68
2023/01/31 16:58:51;;;;;;;1.73;1.20;;;7.40;99.90;;;;;;4934133;29;20204;-68
2023/01/31 17:01:20;;;;;;;8.77;1.75;;;7.40;99.90;;;;;;4929514;29;20235;-68
2023/01/31 17:04:02;;;;;;;3.13;0.80;;;7.40;99.90;;;;;;4934631;29;20216;-68
2023/01/31 17:06:29;;;;;;;6.22;1.60;;;7.40;99.90;;;;;;4929563;29;20686;-68
2023/01/31 17:08:58;;;;;;;0.30;0.30;;;7.40;99.90;;;;;;4933144;29;20701;-69
2023/01/31 17:11:25;;;;;;;0.30;0.30;;;7.40;99.90;;;;;;4929732;29;20331;-70
2023/01/31 17:13:52;;;;;;;13.95;2.15;;;7.40;99.90;;;;;;4932517;29;20211;-66
2023/01/31 17:16:24;;;;;;;0.60;0.60;;;7.40;99.90;;;;;;4934740;29;20359;-68
2023/01/31 17:18:51;;;;;;;3.60;1.40;;;7.40;99.90;;;;;;4927996;29;20204;-69
2023/01/31 17:21:18;;;;;;;1.42;1.38;;;7.40;99.90;;;;;;4931896;29;20253;-68
2023/01/31 17:23:45;;;;;;;1.27;1.17;;;7.40;99.90;;;;;;4931207;29;20204;-70
2023/01/31 17:26:17;;;;;;;5.40;2.40;;;7.40;99.90;;;;;;4935124;29;20208;-70
2023/01/31 17:28:44;;;;;;;0.85;0.63;;;7.40;99.90;;;;;;4932287;29;20216;-70
2023/01/31 17:31:18;;;;;;;4.03;1.45;;;7.30;99.90;;;;;;4930467;23;20232;-67
2023/01/31 17:33:45;;;;;;;1.50;0.77;;;7.30;99.90;;;;;;4914427;29;20334;-68
2023/01/31 17:36:11;;;;;;;0.57;0.57;;;7.20;99.90;;;;;;4917318;29;20607;-68
2023/01/31 17:38:38;;;;;;;7.75;1.48;;;7.10;99.90;;;;;;4920640;29;20211;-68
2023/01/31 17:41:05;;;;;;;10.00;2.45;;;7.10;99.90;;;;;;4915722;29;20228;-71
2023/01/31 17:43:33;;;;;;;1.48;1.42;;;7.00;99.90;;;;;;4913173;29;20217;-67
2023/01/31 17:46:00;;;;;;;1.10;1.10;;;6.90;99.90;;;;;;4920454;29;20220;-68
2023/01/31 17:48:27;;;;;;;2.60;1.60;;;6.80;99.90;;;;;;4925331;29;20228;-68
2023/01/31 17:50:54;;;;;;;0.50;0.50;;;6.80;99.90;;;;;;4929631;29;20240;-68
2023/01/31 17:53:20;;;;;;;3.42;0.88;;;6.70;99.90;;;;;;4926984;29;20238;-68
2023/01/31 17:55:47;;;;;;;0.82;0.32;;;6.60;99.90;;;;;;4923421;29;20208;-68
2023/01/31 17:58:16;;;;;;;2.85;1.25;;;6.60;99.90;;;;;;4924758;29;20211;-68
2023/01/31 18:00:46;;;;;;;0.65;0.60;;;6.60;99.90;;;;;;4929013;29;20235;-68
2023/01/31 18:03:16;;;;;;;1.38;1.27;;;6.50;99.90;;;;;;4923321;29;20219;-66
2023/01/31 18:05:43;;;;;;;1.10;0.82;;;6.50;99.90;;;;;;4924171;29;20286;-68
2023/01/31 18:08:10;;;;;;;0.60;0.60;;;6.60;99.90;;;;;;4923917;29;20237;-68
2023/01/31 18:10:37;;;;;;;0.40;0.40;;;6.60;99.90;;;;;;4926014;29;20230;-69
2023/01/31 18:13:03;;;;;;;8.70;1.52;;;6.60;99.90;;;;;;4930194;29;20223;-67
2023/01/31 18:15:30;;;;;;;0.40;0.40;;;6.60;99.90;;;;;;4932750;29;20212;-70
2023/01/31 18:17:58;;;;;;;5.45;1.10;;;6.50;99.90;;;;;;4923993;29;20295;-70
2023/01/31 18:20:25;;;;;;;5.25;0.93;;;6.50;99.90;;;;;;4922321;29;20604;-69